Flight Number: EUR1092 Duration: 1:30
Departure: Milano Linate (LIML) at 08:30 Distance: 510 Nm
Arrival: Gatwick Airport (EGKK) at 10:00 Equipment: MD-81

Weather Information
Milano / Linate, Italy (LIML) 45-26N 009-17E 103M Nov 19, 2017 - 10:20 PM EST / 2017.11.20 0320 UTC
Wind: Variable at 1 MPH (1 KT):0
Visibility: greater than 7 mile(s):0 Temperature: 37 F (3 C) Dew Point: 35 F (2 C) Relative Humidity: 93% Pressure (altimeter): 30.06 in. Hg (1018 hPa)
ob: LIML 200320Z VRB01KT CAVOK 03/02 Q1018 NOSIG cycle: 3
Sunrise: 06:33 Sunset: 15:44 (UTC)

London / Gatwick Airport, United Kingdom (EGKK) 51-09N 000-11W 0M Nov 19, 2017 - 10:20 PM EST / 2017.11.20 0320 UTC
Wind: from the NNE (030 degrees) at 1 MPH (1 KT):0
Visibility: greater than 7 mile(s):0
Sky conditions: mostly cloudy Temperature: 39 F (4 C) Dew Point: 37 F (3 C) Relative Humidity: 93% Pressure (altimeter): 30.09 in. Hg (1019 hPa)
ob: EGKK 200320Z 03001KT 9999 BKN022 04/03 Q1019 cycle: 3
Sunrise: 07:31 Sunset: 16:01 (UTC)

TAF:2017/11/20 03:31 TAF AMD EGKK 200311Z 2003/2106 VRB03KT 9999 BKN025 TEMPO 2003/2014 BKN013 PROB30 TEMPO 2003/2006 7000 -RADZ BKN008 BECMG 2006/2009 24010KT BECMG 2014/2017 BKN012 TEMPO 2014/2103 8000 -RA PROB40 TEMPO 2021/2103 4000 RADZ BKN006 BECMG 2103/2106 BKN025

Previous Pireps for this route
Date Aircraft Flight time Fuel used Landing rate On time
2012-08-27MD-8102.2112000-349No
2012-09-23MD-8102.0713658-164No
2012-12-14A32101.4810598-234Yes
2013-03-06A3211.328957-74No
2013-09-02A3211.35117810No
2014-01-02A32101.3910325-265Yes
2014-10-15MD-8101.3510888-386Yes
2015-05-25A32101.5911235-231Yes
2015-08-10MD-8101.3710852-234Yes
2016-03-12MD-8101.4011151-204Yes
2016-10-16MD-811.40120520Charter
2017-08-26MD-812.2890620Charter
2017-08-26MD-812.2890620Charter
(pireps marked green are flown by you)

Route map